createdAt,value
2022-12-25T00:01:35.630Z,4.50
2022-12-25T00:04:03.448Z,4.40
2022-12-25T00:06:31.283Z,4.30
2022-12-25T00:09:00.332Z,4.20
2022-12-25T00:11:28.248Z,4.20
2022-12-25T00:13:55.964Z,4.00
2022-12-25T00:16:25.717Z,3.90
2022-12-25T00:18:53.893Z,3.80
2022-12-25T00:21:22.403Z,3.80
2022-12-25T00:23:55.376Z,3.70
2022-12-25T00:26:27.650Z,3.80
2022-12-25T00:28:57.192Z,3.80
2022-12-25T00:31:26.517Z,3.70
2022-12-25T00:33:54.746Z,3.70
2022-12-25T00:36:24.033Z,3.70
2022-12-25T00:38:51.804Z,3.80
2022-12-25T00:41:42.901Z,3.80
2022-12-25T00:44:13.807Z,3.70
2022-12-25T00:46:42.041Z,3.80
2022-12-25T00:49:10.180Z,3.80
2022-12-25T00:51:37.937Z,3.80
2022-12-25T00:54:05.745Z,3.70
2022-12-25T00:56:33.500Z,3.50
2022-12-25T00:59:01.268Z,3.50
2022-12-25T01:01:30.662Z,3.40
2022-12-25T01:03:58.675Z,3.30
2022-12-25T01:06:26.951Z,3.30
2022-12-25T01:09:12.465Z,3.30
2022-12-25T01:11:40.215Z,3.30
2022-12-25T01:14:08.266Z,3.30
2022-12-25T01:16:37.674Z,3.20
2022-12-25T01:19:05.696Z,3.10
2022-12-25T01:21:33.606Z,3.00
2022-12-25T01:24:01.379Z,2.80
2022-12-25T01:26:29.247Z,2.70
2022-12-25T01:28:56.963Z,2.60
2022-12-25T01:31:25.679Z,2.50
2022-12-25T01:33:54.839Z,2.50
2022-12-25T01:36:24.213Z,2.60
2022-12-25T01:38:53.119Z,2.70
2022-12-25T01:41:22.889Z,2.70
2022-12-25T01:44:03.475Z,2.60
2022-12-25T01:46:31.936Z,2.70
2022-12-25T01:49:06.320Z,2.70
2022-12-25T01:51:38.069Z,2.70
2022-12-25T01:54:08.419Z,2.70
2022-12-25T01:56:38.858Z,2.70
2022-12-25T01:59:08.488Z,2.80
2022-12-25T02:01:43.193Z,2.70
2022-12-25T02:04:17.078Z,2.60
2022-12-25T02:06:44.833Z,2.60
2022-12-25T02:09:12.568Z,2.60
2022-12-25T02:11:58.330Z,2.60
2022-12-25T02:14:26.661Z,2.70
2022-12-25T02:16:59.971Z,2.70
2022-12-25T02:19:41.932Z,2.70
2022-12-25T02:22:22.195Z,2.70
2022-12-25T02:24:58.433Z,2.70
2022-12-25T02:27:53.470Z,2.60
2022-12-25T02:30:22.102Z,2.60
2022-12-25T02:33:17.765Z,2.60
2022-12-25T02:35:50.996Z,2.60
2022-12-25T02:38:23.047Z,2.60
2022-12-25T02:40:53.550Z,2.50
2022-12-25T02:43:43.380Z,2.50
2022-12-25T02:46:32.986Z,2.50
2022-12-25T02:49:29.191Z,2.50
2022-12-25T02:52:17.259Z,2.50
2022-12-25T02:55:06.500Z,2.60
2022-12-25T02:57:59.240Z,2.60
2022-12-25T03:00:46.125Z,2.60
2022-12-25T03:03:35.120Z,2.50
2022-12-25T03:06:23.142Z,2.40
2022-12-25T03:08:54.653Z,2.30
2022-12-25T03:11:33.550Z,2.20
2022-12-25T03:14:18.147Z,2.20
2022-12-25T03:16:54.240Z,2.30
2022-12-25T03:19:42.862Z,2.40
2022-12-25T03:22:32.483Z,2.40
2022-12-25T03:25:23.527Z,2.60
2022-12-25T03:27:55.757Z,2.60
2022-12-25T03:30:42.853Z,2.60
2022-12-25T03:33:43.991Z,2.60
2022-12-25T03:36:13.846Z,2.50
2022-12-25T03:39:18.426Z,2.40
2022-12-25T03:42:08.631Z,2.30
2022-12-25T03:44:59.788Z,2.40
2022-12-25T03:48:01.684Z,2.20
2022-12-25T03:50:52.658Z,2.10
2022-12-25T03:53:43.993Z,2.10
2022-12-25T03:56:30.080Z,2.00
2022-12-25T03:59:23.289Z,1.90
2022-12-25T04:02:08.799Z,1.90
2022-12-25T04:04:54.319Z,1.90
2022-12-25T04:07:41.280Z,1.80
2022-12-25T04:10:27.539Z,1.80
2022-12-25T04:13:13.162Z,1.70
2022-12-25T04:15:58.659Z,1.60
2022-12-25T04:18:43.866Z,1.60
2022-12-25T04:21:29.304Z,1.50
2022-12-25T04:24:16.126Z,1.50
2022-12-25T04:26:57.930Z,1.40
2022-12-25T04:29:43.387Z,1.40
2022-12-25T04:32:28.840Z,1.40
2022-12-25T04:35:14.296Z,1.40
2022-12-25T04:37:42.062Z,1.40
2022-12-25T04:40:11.973Z,1.40
2022-12-25T04:42:39.679Z,1.30
2022-12-25T04:45:08.395Z,1.20
2022-12-25T04:47:36.164Z,1.00
2022-12-25T04:50:04.085Z,0.90
2022-12-25T04:52:36.009Z,0.80
2022-12-25T04:55:03.835Z,0.70
2022-12-25T04:57:33.146Z,0.70
2022-12-25T05:00:00.902Z,0.60
2022-12-25T05:02:28.748Z,0.60
2022-12-25T05:04:56.539Z,0.60
2022-12-25T05:07:24.231Z,0.60
2022-12-25T05:09:51.953Z,0.60
2022-12-25T05:12:19.669Z,0.50
2022-12-25T05:14:48.745Z,0.50
2022-12-25T05:17:16.446Z,0.50
2022-12-25T05:19:44.189Z,0.40
2022-12-25T05:22:11.897Z,0.30
2022-12-25T05:24:39.612Z,0.20
2022-12-25T05:27:07.361Z,0.10
2022-12-25T05:29:35.111Z,0.20
2022-12-25T05:32:04.238Z,0.20
2022-12-25T05:34:31.997Z,0.20
2022-12-25T05:36:59.756Z,0.10
2022-12-25T05:39:27.504Z,0.10
2022-12-25T05:41:55.191Z,0.10
2022-12-25T05:44:23.251Z,0.20
2022-12-25T05:46:51.029Z,0.20
2022-12-25T05:49:20.136Z,0.20
2022-12-25T05:51:47.835Z,0.20
2022-12-25T05:54:16.829Z,0.20
2022-12-25T05:56:44.545Z,0.20
2022-12-25T05:59:12.283Z,0.20
2022-12-25T06:01:40.085Z,0.20
2022-12-25T06:04:12.459Z,0.20
2022-12-25T06:06:42.332Z,0.10
2022-12-25T06:09:10.811Z,0.10
2022-12-25T06:11:38.501Z,0.10
2022-12-25T06:14:06.734Z,0.10
2022-12-25T06:16:38.202Z,0.00
2022-12-25T06:19:06.970Z,0.00
2022-12-25T06:21:35.104Z,-0.10
2022-12-25T06:24:04.699Z,-0.10
2022-12-25T06:26:32.617Z,-0.10
2022-12-25T06:29:00.362Z,-0.10
2022-12-25T06:31:28.139Z,-0.10
2022-12-25T06:33:56.193Z,0.00
2022-12-25T06:36:25.805Z,-0.10
2022-12-25T06:38:53.917Z,-0.10
2022-12-25T06:41:24.472Z,-0.10
2022-12-25T06:43:53.928Z,0.00
2022-12-25T06:46:23.065Z,0.00
2022-12-25T06:48:50.874Z,0.10
2022-12-25T06:51:20.075Z,0.20
2022-12-25T06:53:48.145Z,0.10
2022-12-25T06:56:18.306Z,0.10
2022-12-25T06:58:49.449Z,0.00
2022-12-25T07:01:21.599Z,0.00
2022-12-25T07:03:53.094Z,-0.10
2022-12-25T07:06:20.839Z,-0.10
2022-12-25T07:08:48.647Z,-0.10
2022-12-25T07:11:16.909Z,0.00
2022-12-25T07:13:44.687Z,0.00
2022-12-25T07:16:14.229Z,0.00
2022-12-25T07:18:42.779Z,0.10
2022-12-25T07:21:12.172Z,0.10
2022-12-25T07:23:40.121Z,0.00
2022-12-25T07:26:08.094Z,-0.10
2022-12-25T07:28:35.877Z,-0.10
2022-12-25T07:31:05.288Z,0.00
2022-12-25T07:33:34.873Z,0.10
2022-12-25T07:36:02.566Z,0.20
2022-12-25T07:38:30.339Z,0.20
2022-12-25T07:40:58.523Z,0.20
2022-12-25T07:43:26.449Z,0.20
2022-12-25T07:45:57.879Z,0.20
2022-12-25T07:48:25.679Z,0.20
2022-12-25T07:50:59.556Z,0.30
2022-12-25T07:53:27.447Z,0.30
2022-12-25T07:55:59.287Z,0.40
2022-12-25T07:58:27.135Z,0.40
2022-12-25T08:00:55.102Z,0.40
2022-12-25T08:03:23.159Z,0.50
2022-12-25T08:05:50.996Z,0.50
2022-12-25T08:08:20.051Z,0.60
2022-12-25T08:10:48.247Z,0.60
2022-12-25T08:13:15.964Z,0.70
2022-12-25T08:15:43.927Z,0.70
2022-12-25T08:18:11.675Z,0.80
2022-12-25T08:20:39.444Z,0.80
2022-12-25T08:23:07.178Z,0.90
2022-12-25T08:25:36.206Z,0.80
2022-12-25T08:28:04.236Z,0.90
2022-12-25T08:30:32.122Z,1.00
2022-12-25T08:33:00.000Z,1.10
2022-12-25T08:35:27.731Z,1.20
2022-12-25T08:37:55.456Z,1.30
2022-12-25T08:40:23.154Z,1.50
2022-12-25T08:42:52.205Z,1.50
2022-12-25T08:45:19.940Z,1.50
2022-12-25T08:47:47.627Z,1.50
2022-12-25T08:50:15.387Z,1.40
2022-12-25T08:52:43.190Z,1.60
2022-12-25T08:55:11.062Z,1.60
2022-12-25T08:57:38.802Z,1.80
2022-12-25T09:00:10.132Z,1.90
2022-12-25T09:02:38.084Z,2.10
2022-12-25T09:05:07.472Z,2.50
2022-12-25T09:07:35.233Z,2.50
2022-12-25T09:10:02.967Z,2.70
2022-12-25T09:12:30.700Z,2.80
2022-12-25T09:14:58.421Z,3.00
2022-12-25T09:17:27.477Z,3.10
2022-12-25T09:19:55.238Z,3.10
2022-12-25T09:22:22.937Z,3.10
2022-12-25T09:24:50.736Z,3.20
2022-12-25T09:27:18.701Z,3.30
2022-12-25T09:29:46.413Z,3.50
2022-12-25T09:32:14.142Z,3.60
2022-12-25T09:34:43.389Z,3.80
2022-12-25T09:37:11.224Z,3.90
2022-12-25T09:39:45.925Z,4.00
2022-12-25T09:42:17.793Z,4.10
2022-12-25T09:44:48.653Z,4.20
2022-12-25T09:47:19.508Z,4.30
2022-12-25T09:49:55.269Z,4.20
2022-12-25T09:52:27.337Z,4.20
2022-12-25T09:55:00.219Z,4.20
2022-12-25T09:57:28.055Z,4.40
2022-12-25T09:59:56.781Z,4.50
2022-12-25T10:02:36.178Z,4.60
2022-12-25T10:05:40.696Z,4.70
2022-12-25T10:08:16.275Z,4.80
2022-12-25T10:10:52.224Z,4.80
2022-12-25T10:13:36.119Z,4.70
2022-12-25T10:16:15.439Z,4.80
2022-12-25T10:19:01.725Z,5.10
2022-12-25T10:21:31.693Z,5.40
2022-12-25T10:24:07.534Z,5.50
2022-12-25T10:26:36.256Z,5.80
2022-12-25T10:29:12.579Z,6.20
2022-12-25T10:31:41.977Z,6.60
2022-12-25T10:34:12.797Z,6.80
2022-12-25T10:36:42.888Z,6.90
2022-12-25T10:39:16.419Z,7.10
2022-12-25T10:42:03.353Z,7.20
2022-12-25T10:44:32.348Z,7.10
2022-12-25T10:47:02.803Z,7.20
2022-12-25T10:49:33.444Z,7.20
2022-12-25T10:52:02.725Z,7.30
2022-12-25T10:54:32.277Z,7.60
2022-12-25T10:57:02.609Z,8.00
2022-12-25T10:59:34.953Z,8.00
2022-12-25T11:02:12.611Z,8.50
2022-12-25T11:04:40.607Z,9.10
2022-12-25T11:07:16.601Z,10.10
2022-12-25T11:09:50.953Z,11.20
2022-12-25T11:12:20.594Z,13.10
2022-12-25T11:14:55.201Z,14.20
2022-12-25T11:17:25.550Z,12.90
2022-12-25T11:19:55.172Z,12.10
2022-12-25T11:22:24.905Z,11.10
2022-12-25T11:24:53.353Z,10.30
2022-12-25T11:27:26.946Z,9.70
2022-12-25T11:29:59.290Z,9.30
2022-12-25T11:32:31.210Z,9.20
2022-12-25T11:34:59.755Z,9.10
2022-12-25T11:37:34.913Z,8.90
2022-12-25T11:40:03.287Z,8.70
2022-12-25T11:42:35.356Z,8.60
2022-12-25T11:45:06.674Z,8.50
2022-12-25T11:47:38.976Z,8.20
2022-12-25T11:50:20.200Z,8.10
2022-12-25T11:52:50.087Z,7.90
2022-12-25T11:55:20.843Z,7.80
2022-12-25T11:57:55.193Z,7.60
2022-12-25T12:00:23.490Z,7.50
2022-12-25T12:02:57.425Z,7.50
2022-12-25T12:05:29.772Z,7.60
2022-12-25T12:08:02.129Z,7.60
2022-12-25T12:10:38.284Z,7.60
2022-12-25T12:13:24.084Z,7.50
2022-12-25T12:15:52.438Z,7.60
2022-12-25T12:18:23.028Z,7.80
2022-12-25T12:21:02.795Z,8.00
2022-12-25T12:23:35.354Z,8.00
2022-12-25T12:26:03.845Z,8.10
2022-12-25T12:28:44.409Z,8.30
2022-12-25T12:31:12.776Z,8.30
2022-12-25T12:33:43.480Z,8.30
2022-12-25T12:36:14.121Z,8.30
2022-12-25T12:38:45.039Z,8.20
2022-12-25T12:41:14.865Z,8.00
2022-12-25T12:43:47.105Z,7.80
2022-12-25T12:46:24.405Z,7.60
2022-12-25T12:49:10.852Z,7.70
2022-12-25T12:51:39.300Z,7.70
2022-12-25T12:54:20.962Z,7.50
2022-12-25T12:57:00.151Z,7.40
2022-12-25T12:59:34.413Z,7.40
2022-12-25T13:02:18.669Z,7.40
2022-12-25T13:04:56.935Z,7.50
2022-12-25T13:07:44.398Z,7.50
2022-12-25T13:10:24.149Z,7.40
2022-12-25T13:12:55.034Z,7.30
2022-12-25T13:15:25.621Z,7.40
2022-12-25T13:17:53.464Z,7.50
2022-12-25T13:20:25.607Z,7.50
2022-12-25T13:22:53.367Z,7.40
2022-12-25T13:25:24.694Z,7.40
2022-12-25T13:27:56.884Z,7.40
2022-12-25T13:30:25.907Z,7.30
2022-12-25T13:32:53.842Z,7.20
2022-12-25T13:35:23.737Z,7.10
2022-12-25T13:37:51.974Z,7.00
2022-12-25T13:40:25.570Z,6.90
2022-12-25T13:42:56.583Z,6.80
2022-12-25T13:45:27.151Z,6.90
2022-12-25T13:47:56.082Z,6.80
2022-12-25T13:50:26.584Z,6.80
2022-12-25T13:52:55.926Z,6.80
2022-12-25T13:55:26.667Z,6.80
2022-12-25T13:57:56.670Z,6.70
2022-12-25T14:00:30.078Z,6.70
2022-12-25T14:02:59.300Z,6.60
2022-12-25T14:05:32.396Z,6.40
2022-12-25T14:08:14.045Z,6.50
2022-12-25T14:10:43.452Z,6.50
2022-12-25T14:13:15.442Z,6.50
2022-12-25T14:15:46.267Z,6.50
2022-12-25T14:18:16.504Z,6.40
2022-12-25T14:20:58.245Z,6.50
2022-12-25T14:23:26.447Z,6.50
2022-12-25T14:25:55.926Z,6.50
2022-12-25T14:28:32.094Z,6.40
2022-12-25T14:31:01.074Z,6.50
2022-12-25T14:33:30.893Z,6.50
2022-12-25T14:36:00.654Z,6.60
2022-12-25T14:38:32.421Z,6.60
2022-12-25T14:41:03.652Z,6.60
2022-12-25T14:43:32.743Z,6.60
2022-12-25T14:46:02.916Z,6.60
2022-12-25T14:48:32.783Z,6.50
2022-12-25T14:51:04.196Z,6.50
2022-12-25T14:53:37.052Z,6.50
2022-12-25T14:56:07.809Z,6.50
2022-12-25T14:58:41.375Z,6.50
2022-12-25T15:01:20.107Z,6.60
2022-12-25T15:03:49.221Z,6.60
2022-12-25T15:06:20.589Z,6.60
2022-12-25T15:08:57.104Z,6.70
2022-12-25T15:11:26.259Z,6.70
2022-12-25T15:13:54.329Z,6.80
2022-12-25T15:16:24.134Z,6.80
2022-12-25T15:18:52.634Z,6.90
2022-12-25T15:21:25.738Z,6.90
2022-12-25T15:23:53.900Z,7.00
2022-12-25T15:26:21.872Z,7.00
2022-12-25T15:28:51.115Z,7.10
2022-12-25T15:31:22.515Z,7.20
2022-12-25T15:33:50.906Z,7.20
2022-12-25T15:36:18.685Z,7.30
2022-12-25T15:38:46.446Z,7.40
2022-12-25T15:41:37.581Z,7.50
2022-12-25T15:44:07.995Z,7.50
2022-12-25T15:46:36.106Z,7.50
2022-12-25T15:49:04.127Z,7.50
2022-12-25T15:51:31.919Z,7.60
2022-12-25T15:53:59.999Z,7.50
2022-12-25T15:56:28.631Z,7.50
2022-12-25T15:58:56.512Z,7.60
2022-12-25T16:01:25.758Z,7.50
2022-12-25T16:03:53.659Z,7.50
2022-12-25T16:06:21.546Z,7.60
2022-12-25T16:08:49.741Z,7.60
2022-12-25T16:11:17.501Z,7.60
2022-12-25T16:13:45.335Z,7.50
2022-12-25T16:16:13.246Z,7.50
2022-12-25T16:18:47.358Z,7.50
2022-12-25T16:21:18.130Z,7.50
2022-12-25T16:23:46.154Z,7.50
2022-12-25T16:26:14.039Z,7.50
2022-12-25T16:28:41.822Z,7.50
2022-12-25T16:31:09.792Z,7.50
2022-12-25T16:33:37.601Z,7.60
2022-12-25T16:36:07.303Z,7.50
2022-12-25T16:38:35.394Z,7.50
2022-12-25T16:41:03.209Z,7.50
2022-12-25T16:43:31.001Z,7.50
2022-12-25T16:45:59.412Z,7.50
2022-12-25T16:48:27.170Z,7.50
2022-12-25T16:50:54.926Z,7.60
2022-12-25T16:53:24.137Z,7.60
2022-12-25T16:55:51.920Z,7.60
2022-12-25T16:58:19.693Z,7.60
2022-12-25T17:00:49.466Z,7.60
2022-12-25T17:03:17.709Z,7.60
2022-12-25T17:05:45.555Z,7.60
2022-12-25T17:08:13.347Z,7.60
2022-12-25T17:10:42.433Z,7.60
2022-12-25T17:13:10.184Z,7.60
2022-12-25T17:15:37.982Z,7.60
2022-12-25T17:18:06.007Z,7.60
2022-12-25T17:20:33.818Z,7.60
2022-12-25T17:23:01.593Z,7.60
2022-12-25T17:25:29.308Z,7.60
2022-12-25T17:27:58.361Z,7.60
2022-12-25T17:30:26.238Z,7.70
2022-12-25T17:32:55.135Z,7.60
2022-12-25T17:35:23.461Z,7.70
2022-12-25T17:37:51.795Z,7.60
2022-12-25T17:40:19.787Z,7.60
2022-12-25T17:42:47.601Z,7.70
2022-12-25T17:45:17.598Z,7.70
2022-12-25T17:47:45.429Z,7.70
2022-12-25T17:50:13.167Z,7.70
2022-12-25T17:52:40.947Z,7.70
2022-12-25T17:55:09.524Z,7.70
2022-12-25T17:57:37.261Z,7.70
2022-12-25T18:00:06.296Z,7.70
2022-12-25T18:02:35.586Z,7.70
2022-12-25T18:05:03.555Z,7.60
2022-12-25T18:07:31.395Z,7.60
2022-12-25T18:09:59.118Z,7.60
2022-12-25T18:12:27.549Z,7.60
2022-12-25T18:14:55.312Z,7.70
2022-12-25T18:17:23.076Z,7.70
2022-12-25T18:19:52.542Z,7.80
2022-12-25T18:22:20.578Z,7.70
2022-12-25T18:24:48.393Z,7.70
2022-12-25T18:27:16.134Z,7.60
2022-12-25T18:29:43.830Z,7.60
2022-12-25T18:32:11.598Z,7.60
2022-12-25T18:34:39.377Z,7.60
2022-12-25T18:37:08.483Z,7.60
2022-12-25T18:39:36.337Z,7.60
2022-12-25T18:42:21.660Z,7.60
2022-12-25T18:44:49.380Z,7.60
2022-12-25T18:47:17.140Z,7.60
2022-12-25T18:49:44.953Z,7.60
2022-12-25T18:52:48.292Z,7.50
2022-12-25T18:55:01.786Z,7.50
2022-12-25T18:57:32.022Z,7.60
2022-12-25T18:59:59.857Z,7.60
2022-12-25T19:02:28.164Z,7.60
2022-12-25T19:04:56.557Z,7.60
2022-12-25T19:07:26.037Z,7.60
2022-12-25T19:09:53.820Z,7.70
2022-12-25T19:12:21.575Z,7.70
2022-12-25T19:14:49.613Z,7.70
2022-12-25T19:17:17.574Z,7.70
2022-12-25T19:19:45.798Z,7.80
2022-12-25T19:22:13.542Z,7.80
2022-12-25T19:24:42.826Z,7.80
2022-12-25T19:27:10.738Z,7.80
2022-12-25T19:29:38.580Z,7.80
2022-12-25T19:32:06.839Z,7.80
2022-12-25T19:34:34.730Z,7.90
2022-12-25T19:37:03.843Z,7.80
2022-12-25T19:39:31.626Z,7.80
2022-12-25T19:42:00.716Z,7.80
2022-12-25T19:44:28.581Z,7.80
2022-12-25T19:46:56.722Z,7.80
2022-12-25T19:49:24.473Z,7.80
2022-12-25T19:51:52.190Z,7.70
2022-12-25T19:54:20.763Z,7.80
2022-12-25T19:56:49.731Z,7.80
2022-12-25T19:59:18.897Z,7.70
2022-12-25T20:01:46.835Z,7.80
2022-12-25T20:04:15.194Z,7.80
2022-12-25T20:06:43.402Z,7.80
2022-12-25T20:09:14.174Z,7.90
2022-12-25T20:11:43.129Z,7.90
2022-12-25T20:14:13.259Z,7.90
2022-12-25T20:16:42.810Z,7.90
2022-12-25T20:19:12.800Z,8.00
2022-12-25T20:21:40.718Z,7.90
2022-12-25T20:24:11.125Z,7.90
2022-12-25T20:26:40.128Z,8.00
2022-12-25T20:29:08.243Z,8.00
2022-12-25T20:31:36.497Z,7.90
2022-12-25T20:34:08.768Z,8.00
2022-12-25T20:36:38.120Z,8.00
2022-12-25T20:39:09.429Z,8.00
2022-12-25T20:41:38.201Z,8.00
2022-12-25T20:44:08.464Z,8.00
2022-12-25T20:46:36.308Z,7.90
2022-12-25T20:49:06.112Z,7.90
2022-12-25T20:51:34.050Z,7.90
2022-12-25T20:54:01.975Z,8.00
2022-12-25T20:56:30.224Z,8.10
2022-12-25T20:58:59.868Z,8.00
2022-12-25T21:01:29.197Z,8.00
2022-12-25T21:03:58.324Z,8.00
2022-12-25T21:06:27.553Z,8.10
2022-12-25T21:08:55.426Z,8.00
2022-12-25T21:11:23.187Z,8.00
2022-12-25T21:13:51.169Z,8.00
2022-12-25T21:16:21.456Z,8.10
2022-12-25T21:18:50.580Z,8.10
2022-12-25T21:21:18.820Z,8.10
2022-12-25T21:23:48.052Z,8.10
2022-12-25T21:26:19.312Z,8.20
2022-12-25T21:28:47.459Z,8.20
2022-12-25T21:31:15.549Z,8.10
2022-12-25T21:33:54.961Z,8.20
2022-12-25T21:36:27.042Z,8.20
2022-12-25T21:38:58.339Z,8.20
2022-12-25T21:41:28.100Z,8.10
2022-12-25T21:43:57.013Z,8.10
2022-12-25T21:46:25.811Z,8.20
2022-12-25T21:48:54.380Z,8.20
2022-12-25T21:51:41.624Z,8.30
2022-12-25T21:54:11.529Z,8.20
2022-12-25T21:56:44.511Z,8.30
2022-12-25T21:59:15.707Z,8.30
2022-12-25T22:01:44.199Z,8.30
2022-12-25T22:04:13.513Z,8.40
2022-12-25T22:06:58.902Z,8.40
2022-12-25T22:09:28.225Z,8.40
2022-12-25T22:12:13.901Z,8.30
2022-12-25T22:14:54.854Z,8.30
2022-12-25T22:17:44.039Z,8.40
2022-12-25T22:20:14.633Z,8.50
2022-12-25T22:22:42.583Z,8.50
2022-12-25T22:25:12.568Z,8.50
2022-12-25T22:27:41.959Z,8.50
2022-12-25T22:30:11.671Z,8.60
2022-12-25T22:32:40.054Z,8.60
2022-12-25T22:35:10.608Z,8.60
2022-12-25T22:37:38.476Z,8.60
2022-12-25T22:40:07.767Z,8.60
2022-12-25T22:42:37.062Z,8.60
2022-12-25T22:45:06.126Z,8.60
2022-12-25T22:47:33.865Z,8.60
2022-12-25T22:50:02.263Z,8.60
2022-12-25T22:52:30.001Z,8.60
2022-12-25T22:54:57.717Z,8.60
2022-12-25T22:57:26.576Z,8.70
2022-12-25T22:59:55.811Z,8.60
2022-12-25T23:02:23.773Z,8.70
2022-12-25T23:04:51.741Z,8.70
2022-12-25T23:07:20.009Z,8.70
2022-12-25T23:09:47.948Z,8.70
2022-12-25T23:12:29.657Z,8.80
2022-12-25T23:14:58.864Z,8.80
2022-12-25T23:17:44.315Z,8.80
2022-12-25T23:20:32.451Z,8.90
2022-12-25T23:23:17.903Z,8.90
2022-12-25T23:26:02.525Z,9.00
2022-12-25T23:28:48.049Z,9.00
2022-12-25T23:31:17.511Z,9.00
2022-12-25T23:33:45.261Z,9.00
2022-12-25T23:36:13.000Z,9.10
2022-12-25T23:38:40.759Z,9.00
2022-12-25T23:41:08.702Z,9.00
2022-12-25T23:43:36.429Z,9.00
2022-12-25T23:46:04.212Z,9.00
2022-12-25T23:48:33.364Z,9.00
2022-12-25T23:51:04.124Z,9.10
2022-12-25T23:53:31.944Z,9.00
2022-12-25T23:56:00.442Z,9.00
2022-12-25T23:58:29.322Z,9.00
